Time;durP1;ratioP1;P1;durP2;ratioP2;P2;SDS_P1;SDS_P2;PMS_P1;PMS_P2;Temp;Humidity;BMP_temperature;BMP_pressure;BME280_temperature;BME280_humidity;BME280_pressure;Samples;Min_cycle;Max_cycle;Signal;HPM_P1;HPM_P2
2021/03/26 00:03:02;;;;;;;;;70.60;57.00;;;;;9.04;43.54;99244.69;6206633;28;125616;-64
2021/03/26 00:06:12;;;;;;;;;75.00;57.20;;;;;9.30;43.45;99295.03;6205822;28;125726;-64
2021/03/26 00:09:17;;;;;;;;;71.00;56.00;;;;;9.21;43.45;99290.88;6208172;28;126027;-62
2021/03/26 00:12:18;;;;;;;;;73.00;57.00;;;;;9.07;43.82;99273.06;6209223;28;124689;-62
2021/03/26 00:15:19;;;;;;;;;71.20;57.20;;;;;9.19;43.42;99287.56;6223756;28;124934;-61
2021/03/26 00:18:21;;;;;;;;;72.25;56.00;;;;;9.14;43.74;99290.03;6241341;27;124920;-63
2021/03/26 00:21:24;;;;;;;;;74.50;59.00;;;;;9.29;43.89;99298.75;6208277;28;123946;-63
2021/03/26 00:24:25;;;;;;;;;72.60;56.80;;;;;9.34;43.60;99298.16;6242331;27;127778;-63
2021/03/26 00:27:26;;;;;;;;;73.00;57.00;;;;;9.32;43.56;99294.84;6209794;28;127201;-63
2021/03/26 00:30:28;;;;;;;;;72.25;59.00;;;;;9.05;43.74;99267.88;6209789;28;126125;-62
2021/03/26 00:33:30;;;;;;;;;74.25;58.00;;;;;9.20;43.90;99283.84;6224635;28;127390;-63
2021/03/26 00:36:34;;;;;;;;;76.40;58.80;;;;;9.24;43.77;99286.94;6209692;28;126229;-63
2021/03/26 00:39:36;;;;;;;;;77.00;60.40;;;;;9.08;43.65;99275.56;6224423;28;126524;-63
2021/03/26 00:42:37;;;;;;;;;76.40;59.60;;;;;9.19;43.75;99287.56;6209795;28;127592;-63
2021/03/26 00:45:39;;;;;;;;;74.20;58.80;;;;;8.92;43.60;99254.38;6186451;28;124988;-63
2021/03/26 00:48:50;;;;;;;;;72.00;58.00;;;;;9.09;43.81;99287.94;6209189;28;125799;-63
2021/03/26 00:51:51;;;;;;;;;74.75;58.00;;;;;8.82;43.73;99253.09;6224895;28;125324;-63
2021/03/26 00:54:53;;;;;;;;;75.67;59.33;;;;;9.06;43.40;99277.59;6210208;28;125305;-63
2021/03/26 00:57:55;;;;;;;;;74.75;60.25;;;;;9.05;43.86;99281.31;6210228;28;127333;-63
2021/03/26 01:00:58;;;;;;;;;73.80;57.00;;;;;8.96;43.90;99279.00;6224619;28;127040;-63
2021/03/26 01:04:00;;;;;;;;;73.40;57.00;;;;;8.79;43.63;99256.22;6209026;28;125576;-63
2021/03/26 01:07:03;;;;;;;;;73.80;58.20;;;;;8.71;43.84;99262.56;6205802;28;126083;-64
2021/03/26 01:10:11;;;;;;;;;76.20;61.00;;;;;8.77;43.79;99269.00;6207731;28;127195;-63
2021/03/26 01:13:17;;;;;;;;;75.00;60.00;;;;;8.83;44.26;99274.44;6191132;28;126976;-62
2021/03/26 01:16:20;;;;;;;;;74.80;58.20;;;;;8.85;43.91;99275.03;6191174;28;124780;-61
2021/03/26 01:19:26;;;;;;;;;74.40;57.80;;;;;8.76;43.50;99256.59;6239832;27;124728;-62
2021/03/26 01:22:28;;;;;;;;;75.25;58.00;;;;;8.83;43.94;99279.81;6208594;28;125133;-63
2021/03/26 01:25:38;;;;;;;;;73.20;56.40;;;;;8.77;43.75;99275.22;6222054;28;125920;-63
2021/03/26 01:29:05;;;;;;;;;72.80;55.00;;;;;8.61;43.75;99259.44;6221871;28;126005;-63
2021/03/26 01:32:33;;;;;;;;;72.25;53.50;;;;;8.67;43.79;99274.75;6202615;28;126594;-63
2021/03/26 01:35:36;;;;;;;;;73.00;55.60;;;;;8.59;43.81;99267.72;6206510;28;126758;-63
2021/03/26 01:38:39;;;;;;;;;74.00;55.00;;;;;8.58;43.54;99279.47;6207673;28;123826;-62
2021/03/26 01:41:46;;;;;;;;;73.00;55.33;;;;;8.31;43.99;99233.88;6208928;28;125504;-63
2021/03/26 01:44:55;;;;;;;;;73.00;57.00;;;;;8.34;44.07;99245.06;6223781;28;125218;-63
2021/03/26 01:48:09;;;;;;;;;72.00;56.00;;;;;8.36;44.34;99253.72;6206014;28;123780;-63
2021/03/26 01:51:26;;;;;;;;;73.00;56.50;;;;;8.43;44.53;99273.41;6207334;28;125973;-63
2021/03/26 01:54:28;;;;;;;;;71.60;56.20;;;;;8.23;44.37;99241.03;6206645;28;126058;-62
2021/03/26 01:57:30;;;;;;;;;72.00;55.00;;;;;8.41;44.39;99274.63;6207158;28;127233;-62
2021/03/26 02:00:46;;;;;;;;;74.00;56.80;;;;;8.34;44.35;99277.28;6191490;28;124838;-62
2021/03/26 02:03:51;;;;;;;;;72.75;55.50;;;;;8.31;44.37;99274.97;6206622;28;125936;-62
2021/03/26 02:06:55;;;;;;;;;70.00;56.60;;;;;8.36;44.21;99285.13;6206601;28;125243;-62
2021/03/26 02:09:57;;;;;;;;;73.00;57.00;;;;;8.25;44.18;99268.53;6206622;28;126088;-62
2021/03/26 02:13:04;;;;;;;;;70.75;54.50;;;;;8.41;44.25;99291.56;6223450;28;125077;-63
2021/03/26 02:16:08;;;;;;;;;75.00;59.60;;;;;8.49;44.92;99293.28;6223394;28;125886;-62
2021/03/26 02:19:26;;;;;;;;;75.00;59.40;;;;;8.52;45.62;99290.19;6206345;28;126360;-62
2021/03/26 02:22:31;;;;;;;;;74.75;59.00;;;;;8.64;45.69;99296.66;6206046;28;126707;-62
2021/03/26 02:25:33;;;;;;;;;75.33;60.00;;;;;8.45;45.11;99262.47;6190474;28;125168;-62
2021/03/26 02:28:36;;;;;;;;;75.60;57.40;;;;;8.74;44.95;99299.81;6206308;28;124881;-62
2021/03/26 02:32:30;;;;;;;;;74.00;59.00;;;;;8.72;44.30;99301.88;6104777;28;124966;-62
2021/03/26 02:36:12;;;;;;;;;74.80;59.40;;;;;8.60;43.91;99298.91;6112236;28;126080;-62
2021/03/26 02:39:44;;;;;;;;;74.75;58.25;;;;;8.32;43.92;99271.25;6201952;28;124531;-63
2021/03/26 02:42:57;;;;;;;;;73.20;56.60;;;;;8.40;44.05;99300.69;6223566;28;126967;-61
2021/03/26 02:46:14;;;;;;;;;74.40;56.40;;;;;8.27;44.29;99300.53;6222554;28;126335;-61
2021/03/26 02:49:19;;;;;;;;;73.00;57.80;;;;;8.21;44.15;99296.78;6205459;28;126176;-62
2021/03/26 02:52:41;;;;;;;;;72.75;56.75;;;;;7.91;44.15;99271.19;6207055;28;124744;-64
2021/03/26 02:56:11;;;;;;;;;74.00;59.00;;;;;8.14;44.25;99298.63;6206023;28;126022;-63
2021/03/26 02:59:21;;;;;;;;;72.00;56.00;;;;;8.11;44.20;99312.41;6205725;28;126465;-63
2021/03/26 03:02:29;;;;;;;;;73.00;59.00;;;;;8.10;44.35;99305.41;6222554;28;124957;-62
2021/03/26 03:05:46;;;;;;;;;73.00;56.80;;;;;7.97;44.51;99281.13;6239264;27;125872;-62
2021/03/26 03:09:06;;;;;;;;;73.20;56.60;;;;;8.20;44.59;99302.38;6221844;28;124593;-62
2021/03/26 03:12:29;;;;;;;;;76.67;59.67;;;;;8.28;45.25;99300.34;6205980;28;124642;-62
2021/03/26 03:15:36;;;;;;;;;72.00;55.00;;;;;8.39;44.43;99306.25;6206514;28;125475;-62
2021/03/26 03:18:51;;;;;;;;;73.00;57.00;;;;;8.40;44.78;99314.13;6205547;28;125784;-62
2021/03/26 03:22:00;;;;;;;;;72.60;57.00;;;;;8.41;44.38;99310.38;6206986;28;126767;-62
2021/03/26 03:25:11;;;;;;;;;69.60;55.20;;;;;8.43;44.28;99312.88;6205056;28;125353;-62
2021/03/26 03:28:28;;;;;;;;;73.00;56.25;;;;;8.45;44.29;99316.22;6204971;28;125990;-62
2021/03/26 03:31:49;;;;;;;;;73.60;56.00;;;;;8.44;43.98;99303.78;6205463;28;124278;-63
2021/03/26 03:35:31;;;;;;;;;72.50;55.00;;;;;8.38;43.91;99297.34;6204720;28;126634;-61
2021/03/26 03:38:58;;;;;;;;;72.25;56.50;;;;;8.32;44.04;99302.66;6190139;28;125984;-63
2021/03/26 03:42:54;;;;;;;;;71.20;53.60;;;;;8.27;44.48;99303.22;6208784;28;126889;-63
2021/03/26 03:46:12;;;;;;;;;70.40;53.40;;;;;8.39;44.85;99300.88;6206013;28;127079;-64
2021/03/26 03:49:57;;;;;;;;;67.75;52.00;;;;;8.57;44.89;99303.84;6210143;28;126125;-62
2021/03/26 03:53:27;;;;;;;;;63.20;50.00;;;;;8.76;45.57;99307.66;6184673;28;126002;-63
2021/03/26 03:56:42;;;;;;;;;70.00;52.00;;;;;8.68;44.98;99273.75;6184667;28;124960;-62
2021/03/26 03:59:53;;;;;;;;;66.80;51.00;;;;;8.88;45.20;99287.25;6185010;28;123941;-63
2021/03/26 04:03:20;;;;;;;;;65.00;50.00;;;;;9.14;45.41;99311.53;6185771;28;125107;-63
2021/03/26 04:06:48;;;;;;;;;63.60;49.20;;;;;9.24;45.85;99311.16;6208937;28;124771;-63
2021/03/26 04:09:56;;;;;;;;;64.40;50.00;;;;;9.39;45.22;99318.03;6208451;28;126509;-63
2021/03/26 04:13:05;;;;;;;;;65.75;50.75;;;;;9.44;44.62;99318.25;6192912;28;125623;-63
2021/03/26 04:16:10;;;;;;;;;66.75;50.00;;;;;9.38;44.48;99304.81;6209656;28;126262;-63
2021/03/26 04:19:40;;;;;;;;;67.25;52.00;;;;;9.48;44.01;99330.25;6208529;28;124546;-63
2021/03/26 04:22:47;;;;;;;;;67.40;51.00;;;;;9.46;44.07;99323.44;6208380;28;124386;-63
2021/03/26 04:26:24;;;;;;;;;68.80;50.00;;;;;9.42;43.74;99331.09;6200848;28;126699;-63
2021/03/26 04:30:00;;;;;;;;;66.60;51.60;;;;;9.27;43.56;99316.16;6185563;28;125881;-64
2021/03/26 04:33:18;;;;;;;;;67.00;51.00;;;;;9.20;43.69;99318.81;6216839;28;124019;-63
2021/03/26 04:36:27;;;;;;;;;68.40;52.00;;;;;9.29;43.83;99330.22;6200565;28;124860;-63
2021/03/26 04:40:04;;;;;;;;;67.00;51.00;;;;;9.27;43.54;99322.38;6202130;28;125281;-63
2021/03/26 04:43:33;;;;;;;;;67.00;51.75;;;;;9.19;43.27;99319.03;6224115;28;124840;-64
2021/03/26 04:47:01;;;;;;;;;70.40;52.80;;;;;8.98;43.06;99315.44;6224021;27;126397;-63
2021/03/26 04:50:36;;;;;;;;;70.20;53.00;;;;;9.04;43.04;99329.94;6207034;28;124097;-63
2021/03/26 04:53:48;;;;;;;;;69.20;52.80;;;;;8.99;43.20;99335.91;6240142;27;124740;-63
2021/03/26 04:57:05;;;;;;;;;68.80;51.60;;;;;8.99;43.16;99343.97;6207537;28;126179;-63
2021/03/26 05:00:16;;;;;;;;;70.40;52.00;;;;;9.04;43.13;99340.72;6209076;28;126516;-63
2021/03/26 05:03:37;;;;;;;;;69.40;51.00;;;;;9.03;43.11;99339.88;6185910;28;126389;-63
2021/03/26 05:07:14;;;;;;;;;67.00;51.40;;;;;9.07;44.08;99343.81;6240148;27;124575;-63
2021/03/26 05:10:24;;;;;;;;;66.00;51.00;;;;;9.21;44.17;99346.53;6223126;28;124744;-63
2021/03/26 05:13:39;;;;;;;;;70.00;50.60;;;;;9.39;43.99;99352.19;6206432;28;126290;-63
2021/03/26 05:16:55;;;;;;;;;66.00;51.00;;;;;9.25;43.65;99302.91;6206110;28;126063;-63
2021/03/26 05:21:00;;;;;;;;;67.25;50.25;;;;;9.65;43.26;99348.72;6200100;27;125754;-63
2021/03/26 05:24:40;;;;;;;;;65.40;48.00;;;;;9.80;43.70;99349.38;6199207;28;124897;-63
2021/03/26 05:28:21;;;;;;;;;67.60;50.40;;;;;9.99;43.67;99346.69;6164260;28;126221;-63
2021/03/26 05:31:49;;;;;;;;;64.00;49.25;;;;;10.15;43.58;99350.84;6206490;28;123929;-63
2021/03/26 05:35:21;;;;;;;;;67.00;50.67;;;;;10.34;43.40;99358.13;6208634;28;126049;-63
2021/03/26 05:39:05;;;;;;;;;69.75;52.00;;;;;10.57;43.14;99346.88;6198654;28;125627;-63
2021/03/26 05:42:58;;;;;;;;;67.20;51.00;;;;;10.75;42.60;99357.03;6207614;28;126946;-63
2021/03/26 05:46:19;;;;;;;;;67.00;51.00;;;;;10.73;42.41;99326.75;6189392;28;126097;-63
2021/03/26 05:50:08;;;;;;;;;67.25;50.00;;;;;11.04;42.11;99351.13;6201695;28;125239;-63
2021/03/26 05:53:29;;;;;;;;;67.40;50.00;;;;;11.23;42.16;99355.63;6207993;28;126100;-63
2021/03/26 05:57:12;;;;;;;;;67.75;51.50;;;;;11.48;41.87;99362.97;6182703;28;123621;-63
2021/03/26 06:00:42;;;;;;;;;69.80;52.00;;;;;11.75;41.57;99367.19;6183667;28;125991;-63
2021/03/26 06:04:39;;;;;;;;;67.40;51.60;;;;;12.02;41.19;99382.16;6194876;28;126070;-63
2021/03/26 06:08:17;;;;;;;;;69.50;52.00;;;;;12.22;40.98;99365.00;6202740;28;125944;-63
2021/03/26 06:12:07;;;;;;;;;67.00;52.50;;;;;12.57;40.37;99366.94;6184856;28;127037;-64
2021/03/26 06:15:43;;;;;;;;;69.25;51.25;;;;;12.81;40.15;99369.81;6184222;28;125975;-64
2021/03/26 06:19:31;;;;;;;;;69.75;51.00;;;;;13.02;39.71;99362.09;6208715;28;126200;-62
2021/03/26 06:23:22;;;;;;;;;67.60;51.00;;;;;13.40;39.09;99378.13;6207940;28;125796;-63
2021/03/26 06:26:58;;;;;;;;;68.00;51.00;;;;;13.65;38.61;99385.28;6206866;28;125801;-64
2021/03/26 06:30:08;;;;;;;;;72.00;53.00;;;;;13.82;38.67;99380.91;6219944;27;124890;-64
2021/03/26 06:33:45;;;;;;;;;71.75;53.75;;;;;14.13;38.50;99387.91;6238102;27;127887;-62
2021/03/26 06:37:23;;;;;;;;;66.75;52.00;;;;;14.36;37.98;99382.59;6207829;28;127876;-64
2021/03/26 06:40:49;;;;;;;;;67.20;50.20;;;;;14.78;37.05;99407.72;6206229;28;125900;-62
2021/03/26 06:43:59;;;;;;;;;66.75;50.00;;;;;15.06;36.18;99382.56;6218052;28;124057;-63
2021/03/26 06:47:13;;;;;;;;;66.00;49.40;;;;;15.35;35.62;99392.41;6208229;28;126228;-62
2021/03/26 06:50:30;;;;;;;;;65.40;49.20;;;;;15.74;34.88;99387.22;6206074;28;124879;-64
2021/03/26 06:53:46;;;;;;;;;61.00;48.00;;;;;16.12;34.28;99403.75;6206820;28;125842;-64
2021/03/26 06:56:48;;;;;;;;;63.00;48.00;;;;;16.43;33.95;99395.00;6188778;28;126779;-64
2021/03/26 06:59:59;;;;;;;;;67.80;51.00;;;;;16.59;33.83;99398.00;6200128;28;126707;-62
2021/03/26 07:03:19;;;;;;;;;63.60;49.20;;;;;16.76;33.38;99396.91;6192265;28;125310;-62
2021/03/26 07:06:56;;;;;;;;;65.00;50.00;;;;;16.95;33.10;99399.38;6185010;28;123966;-62
2021/03/26 07:10:17;;;;;;;;;66.25;49.75;;;;;17.14;32.71;99393.41;6173381;28;125866;-65
2021/03/26 07:13:21;;;;;;;;;64.75;50.00;;;;;17.48;32.42;99396.84;6201627;28;124740;-63
2021/03/26 07:16:43;;;;;;;;;65.60;49.80;;;;;17.98;31.94;99402.06;6197360;28;126574;-65
2021/03/26 07:20:18;;;;;;;;;64.00;49.00;;;;;18.31;31.16;99397.47;6188468;28;127574;-64
2021/03/26 07:23:38;;;;;;;;;66.40;51.00;;;;;18.67;30.70;99395.88;6184825;28;127069;-64
2021/03/26 07:27:05;;;;;;;;;63.50;50.00;;;;;18.95;30.53;99370.94;6197163;28;125930;-64
2021/03/26 07:30:35;;;;;;;;;67.00;50.60;;;;;19.62;29.84;99398.34;6191865;28;125787;-64
2021/03/26 07:33:51;;;;;;;;;65.50;49.50;;;;;20.16;29.58;99398.75;6211469;28;124815;-65
2021/03/26 07:37:14;;;;;;;;;69.00;50.40;;;;;20.75;28.96;99407.31;6184762;28;125709;-64
2021/03/26 07:40:32;;;;;;;;;67.75;50.25;;;;;21.08;28.26;99394.91;6200778;28;126002;-61
2021/03/26 07:43:46;;;;;;;;;67.00;50.00;;;;;21.71;27.54;99410.88;6181364;28;126150;-60
2021/03/26 07:47:18;;;;;;;;;62.00;48.00;;;;;22.01;26.60;99414.34;6217560;28;126426;-62
2021/03/26 07:50:43;;;;;;;;;67.00;50.00;;;;;22.51;25.96;99419.75;6193757;28;124804;-64
2021/03/26 07:54:03;;;;;;;;;62.00;48.00;;;;;22.95;25.62;99427.94;6185245;28;124663;-62
2021/03/26 07:57:23;;;;;;;;;64.75;50.00;;;;;23.35;25.61;99430.28;6188610;28;125962;-62
2021/03/26 08:00:40;;;;;;;;;67.00;48.00;;;;;23.77;24.96;99432.25;6182757;28;124828;-63
2021/03/26 08:03:59;;;;;;;;;67.00;49.50;;;;;24.13;24.64;99424.34;6189069;28;125303;-65
2021/03/26 08:07:43;;;;;;;;;65.25;50.00;;;;;24.58;24.23;99431.94;6194041;28;124906;-64
2021/03/26 08:10:54;;;;;;;;;63.00;47.20;;;;;24.98;23.03;99433.22;6191958;28;125874;-63
2021/03/26 08:14:19;;;;;;;;;62.00;47.00;;;;;25.19;22.62;99438.38;6183731;28;126705;-63
2021/03/26 08:17:42;;;;;;;;;62.00;46.00;;;;;25.47;22.23;99431.75;6203755;28;123392;-62
2021/03/26 08:20:59;;;;;;;;;64.25;47.00;;;;;25.92;21.58;99441.06;6187854;28;126245;-63
2021/03/26 08:24:26;;;;;;;;;61.00;47.50;;;;;26.33;21.44;99445.72;6196569;28;125540;-62
2021/03/26 08:28:02;;;;;;;;;62.00;48.00;;;;;26.71;21.46;99439.53;6173767;28;124711;-62
2021/03/26 08:31:37;;;;;;;;;63.60;47.00;;;;;26.79;20.55;99437.94;6197565;28;124774;-62
2021/03/26 08:35:01;;;;;;;;;61.80;48.00;;;;;26.94;20.52;99442.31;6198676;28;124839;-63
2021/03/26 08:38:33;;;;;;;;;61.20;48.60;;;;;27.22;20.19;99445.75;6192074;28;126550;-62
2021/03/26 08:41:43;;;;;;;;;64.00;49.50;;;;;27.28;20.18;99442.50;6204645;28;127302;-63
2021/03/26 08:45:08;;;;;;;;;63.00;48.00;;;;;27.57;20.00;99451.13;6194636;28;125435;-63
2021/03/26 08:48:38;;;;;;;;;60.80;48.00;;;;;27.84;19.67;99446.50;6188384;28;124826;-63
2021/03/26 08:52:12;;;;;;;;;59.40;46.20;;;;;27.80;19.93;99451.06;6197404;28;124966;-60
2021/03/26 08:55:51;;;;;;;;;62.25;47.25;;;;;28.03;19.50;99449.81;6190137;28;126456;-61
2021/03/26 08:59:10;;;;;;;;;61.50;47.00;;;;;28.34;19.80;99452.50;6197621;28;125854;-59
2021/03/26 09:02:42;;;;;;;;;64.00;49.00;;;;;28.43;19.16;99443.03;6200006;28;125131;-60
2021/03/26 09:06:22;;;;;;;;;62.60;47.40;;;;;28.71;19.55;99440.78;6222663;27;124435;-61
2021/03/26 09:09:39;;;;;;;;;62.60;49.00;;;;;28.81;18.87;99443.22;6204917;28;124924;-60
2021/03/26 09:12:52;;;;;;;;;61.00;48.40;;;;;29.08;19.22;99442.00;6185811;28;126272;-61
2021/03/26 09:16:02;;;;;;;;;65.00;49.00;;;;;29.46;18.68;99424.59;6182606;28;125004;-60
2021/03/26 09:19:15;;;;;;;;;67.33;50.00;;;;;29.75;18.46;99449.66;6211751;28;123648;-60
2021/03/26 09:22:38;;;;;;;;;66.60;51.00;;;;;29.78;18.72;99442.59;6216397;27;125855;-59
2021/03/26 09:25:45;;;;;;;;;67.00;50.00;;;;;29.95;17.81;99446.13;6192480;28;124866;-61
2021/03/26 09:28:54;;;;;;;;;65.50;50.00;;;;;30.00;18.18;99437.59;6184217;28;124541;-60
2021/03/26 09:32:06;;;;;;;;;66.00;50.40;;;;;30.10;18.42;99406.59;6204105;28;125112;-61
2021/03/26 09:35:18;;;;;;;;;70.00;52.00;;;;;30.46;17.51;99435.78;6169365;28;124176;-60
2021/03/26 09:38:47;;;;;;;;;69.50;51.00;;;;;30.37;17.47;99418.34;6190107;28;125264;-61
2021/03/26 09:42:32;;;;;;;;;67.00;50.60;;;;;30.53;18.08;99427.72;6166504;28;126114;-61
2021/03/26 09:45:50;;;;;;;;;62.40;48.40;;;;;30.54;18.41;99423.81;6184674;28;125631;-60
2021/03/26 09:49:01;;;;;;;;;65.00;49.00;;;;;30.82;18.92;99435.97;6197961;28;126613;-61
2021/03/26 09:52:31;;;;;;;;;66.20;48.60;;;;;30.99;18.09;99435.78;6193815;28;124730;-62
2021/03/26 09:55:37;;;;;;;;;62.00;47.00;;;;;31.25;18.00;99429.16;6200250;28;125236;-60
2021/03/26 09:58:53;;;;;;;;;66.50;50.00;;;;;31.56;17.84;99429.47;6205813;28;126949;-59
2021/03/26 10:02:28;;;;;;;;;69.00;50.00;;;;;31.74;17.47;99428.06;6196344;28;126984;-62
2021/03/26 10:06:03;;;;;;;;;66.60;50.00;;;;;31.82;17.11;99420.72;6212072;28;124484;-60
2021/03/26 10:12:41;;;;;;;;;65.25;50.00;;;;;31.77;17.20;99412.59;6198633;28;126901;-60
2021/03/26 10:15:59;;;;;;;;;69.00;51.20;;;;;30.99;16.96;99404.34;6168013;28;123788;-59
2021/03/26 10:19:24;;;;;;;;;66.00;50.50;;;;;30.89;17.05;99402.81;6186481;28;123690;-59
2021/03/26 10:22:49;;;;;;;;;67.00;50.00;;;;;31.08;17.19;99398.72;6178253;28;133101;-60
2021/03/26 10:27:12;;;;;;;;;69.60;50.60;;;;;31.46;16.59;99401.19;6329890;27;98255;-61
2021/03/26 10:30:23;;;;;;;;;63.80;49.20;;;;;31.55;16.72;99405.50;6282099;27;125313;-60
2021/03/26 10:33:49;;;;;;;;;66.00;50.67;;;;;31.58;17.40;99396.47;5623133;27;4657581;-61
2021/03/26 10:37:03;;;;;;;;;67.57;50.00;;;;;31.87;17.16;99403.75;5540234;27;6593622;-61
2021/03/26 10:40:21;;;;;;;;;67.71;50.00;;;;;32.03;16.26;99390.72;5602854;27;6590194;-61
2021/03/26 10:43:34;;;;;;;;;67.00;50.71;;;;;32.22;17.07;99395.72;5542845;27;6595227;-60
2021/03/26 10:46:46;;;;;;;;;67.50;50.25;;;;;32.35;16.62;99397.31;5639432;27;7327208;-59
2021/03/26 10:49:56;;;;;;;;;64.00;50.14;;;;;32.17;16.16;99384.78;5617259;27;6574104;-60
2021/03/26 10:53:09;;;;;;;;;65.38;50.63;;;;;31.97;16.08;99377.38;5638777;27;6594946;-60
2021/03/26 10:56:35;;;;;;;;;68.29;52.00;;;;;31.38;16.54;99373.09;5646553;27;6595308;-60
2021/03/26 10:59:47;;;;;;;;;69.38;52.00;;;;;30.87;17.12;99394.00;5620793;27;7346983;-59
2021/03/26 11:02:59;;;;;;;;;63.00;49.43;;;;;30.59;18.40;99375.47;5627950;27;6583491;-60
2021/03/26 11:06:15;;;;;;;;;64.14;49.00;;;;;30.73;18.17;99365.66;5645975;27;6581373;-59
2021/03/26 11:09:27;;;;;;;;;68.00;50.00;;;;;31.06;17.43;99368.44;5656453;27;6547006;-59
2021/03/26 11:12:40;;;;;;;;;63.86;48.86;;;;;31.39;17.30;99377.50;5630087;27;6578290;-59
2021/03/26 11:15:51;;;;;;;;;67.57;50.00;;;;;31.61;16.72;99381.03;5646373;27;6590786;-60
2021/03/26 11:19:04;;;;;;;;;64.29;48.43;;;;;31.73;17.53;99370.66;5669558;27;6579356;-59
2021/03/26 11:22:17;;;;;;;;;63.00;47.86;;;;;32.01;17.63;99375.53;5628787;27;6581402;-59
2021/03/26 11:25:31;;;;;;;;;63.86;48.00;;;;;32.22;17.12;99371.41;5645325;27;5818980;-59
2021/03/26 11:28:45;;;;;;;;;68.88;50.88;;;;;32.17;16.35;99370.84;5664777;27;6598509;-59
2021/03/26 11:31:56;;;;;;;;;63.00;50.00;;;;;32.01;16.91;99358.78;5643795;27;3958612;-59
2021/03/26 11:35:09;;;;;;;;;64.29;49.43;;;;;31.67;16.42;99362.88;5669037;27;6589761;-59
2021/03/26 11:38:33;;;;;;;;;64.43;48.57;;;;;31.17;17.04;99357.66;5646198;28;6589732;-59
2021/03/26 11:41:50;;;;;;;;;64.70;48.20;;;;;30.67;17.91;99361.47;5634921;28;6581324;-59
2021/03/26 11:45:05;;;;;;;;;61.29;48.00;;;;;30.75;18.20;99345.81;5648119;28;6560583;-59
2021/03/26 11:48:24;;;;;;;;;62.71;48.86;;;;;31.10;17.39;99355.44;5636091;28;6598075;-60
2021/03/26 11:51:37;;;;;;;;;62.86;49.00;;;;;31.22;16.58;99349.88;5617905;28;6577218;-59
2021/03/26 11:54:55;;;;;;;;;62.00;46.00;;;;;31.14;17.19;99342.44;5646523;28;6574121;-59
2021/03/26 11:58:13;;;;;;;;;61.71;47.86;;;;;31.04;17.17;99347.63;5645774;27;6576197;-59
2021/03/26 12:01:27;;;;;;;;;60.29;46.00;;;;;30.72;16.90;99333.41;5646871;28;6562627;-59
2021/03/26 12:04:43;;;;;;;;;61.57;46.00;;;;;30.64;17.55;99331.53;5658259;28;6581423;-58
2021/03/26 12:07:55;;;;;;;;;59.00;46.00;;;;;30.79;18.23;99332.84;5631016;28;5812664;-59
2021/03/26 12:11:06;;;;;;;;;61.25;46.00;;;;;30.29;17.18;99319.09;5631754;27;7311190;-60
2021/03/26 12:14:21;;;;;;;;;59.67;45.67;;;;;29.44;18.13;99321.31;5656642;27;5812705;-61
2021/03/26 12:17:38;;;;;;;;;60.57;47.00;;;;;29.31;18.71;99320.44;5666729;28;6579305;-60
2021/03/26 12:20:47;;;;;;;;;61.17;46.83;;;;;29.20;19.16;99313.59;5665286;28;5788731;-60
2021/03/26 12:24:01;;;;;;;;;57.29;46.00;;;;;29.35;19.39;99317.78;5657724;28;6548059;-59
2021/03/26 12:27:20;;;;;;;;;61.14;47.71;;;;;29.49;19.18;99310.84;5664508;28;5818017;-59
2021/03/26 12:30:29;;;;;;;;;56.57;44.00;;;;;29.42;19.34;99290.31;5655369;28;6550152;-59
2021/03/26 12:33:44;;;;;;;;;61.29;46.00;;;;;29.65;18.74;99309.13;5649593;27;6575561;-60
2021/03/26 12:36:58;;;;;;;;;66.00;47.00;;;;;29.19;18.68;99307.22;5648067;27;3958588;-59
2021/03/26 12:40:23;;;;;;;;;60.43;46.43;;;;;28.25;19.66;99299.16;5664444;27;6524166;-59
2021/03/26 12:43:36;;;;;;;;;63.00;47.67;;;;;28.18;19.34;99301.63;5640494;28;3939838;-59
2021/03/26 12:47:01;;;;;;;;;58.57;46.00;;;;;28.10;19.99;99294.91;5664071;28;6573098;-59
2021/03/26 12:50:14;;;;;;;;;58.14;46.00;;;;;27.80;19.85;99288.41;5643109;28;6573087;-60
2021/03/26 12:53:30;;;;;;;;;58.29;45.57;;;;;27.52;20.84;99279.56;5633487;28;6560614;-60
2021/03/26 12:56:47;;;;;;;;;60.00;44.13;;;;;27.57;20.51;99287.72;5631401;27;6566293;-60
2021/03/26 13:00:02;;;;;;;;;57.29;44.29;;;;;27.54;20.66;99274.53;5664787;28;6529336;-60
2021/03/26 13:03:23;;;;;;;;;59.29;46.00;;;;;27.34;21.21;99265.97;5647129;28;6552226;-60
2021/03/26 13:06:36;;;;;;;;;59.63;45.50;;;;;27.46;20.26;99264.22;5653629;28;6566935;-59
2021/03/26 13:09:58;;;;;;;;;59.09;45.45;;;;;27.27;20.34;99258.16;5655031;28;6551149;-60
2021/03/26 13:13:19;;;;;;;;;58.40;44.10;;;;;27.32;21.35;99262.75;5655587;27;6531435;-60
2021/03/26 13:16:45;;;;;;;;;55.00;44.00;;;;;27.36;20.67;99267.31;5633544;27;6520017;-60
2021/03/26 13:20:03;;;;;;;;;57.00;44.00;;;;;27.43;21.10;99245.47;5664141;27;5806431;-59
2021/03/26 13:23:20;;;;;;;;;57.29;45.00;;;;;27.53;20.32;99264.59;5663199;27;5803385;-61
2021/03/26 13:26:30;;;;;;;;;54.43;43.29;;;;;27.44;20.06;99260.97;5657130;27;6544927;-61
2021/03/26 13:29:36;;;;;;;;;56.63;43.88;;;;;27.38;20.63;99259.47;5632715;28;7319231;-59
2021/03/26 13:33:09;;;;;;;;;56.29;42.71;;;;;27.07;20.59;99254.03;5663591;28;6560575;-59
2021/03/26 13:36:36;;;;;;;;;57.71;44.00;;;;;26.32;20.85;99262.47;5652093;28;6560635;-60
2021/03/26 13:40:02;;;;;;;;;56.29;44.00;;;;;26.24;21.35;99258.50;5659677;28;6563793;-61
2021/03/26 13:43:18;;;;;;;;;53.00;41.29;;;;;26.26;21.38;99255.44;5661417;28;5801270;-60
2021/03/26 13:46:29;;;;;;;;;55.14;42.57;;;;;26.24;21.41;99246.66;5633075;28;6546004;-61
2021/03/26 13:49:50;;;;;;;;;55.57;43.29;;;;;26.31;21.50;99252.53;5663121;28;5816966;-61
2021/03/26 13:53:06;;;;;;;;;53.43;42.43;;;;;26.33;21.65;99246.69;5633266;27;6528300;-61
2021/03/26 13:56:19;;;;;;;;;53.86;42.00;;;;;26.59;20.97;99247.63;5669169;27;5799270;-61
2021/03/26 13:59:39;;;;;;;;;52.00;41.00;;;;;26.68;21.25;99248.50;5657308;27;6536654;-61
2021/03/26 14:02:57;;;;;;;;;52.00;42.14;;;;;26.57;20.63;99242.44;5648485;27;5806455;-60
2021/03/26 14:06:15;;;;;;;;;53.13;42.00;;;;;26.17;20.96;99255.34;5616905;27;7288702;-61
2021/03/26 14:09:29;;;;;;;;;56.00;43.00;;;;;25.23;21.62;99236.00;5650904;28;6558496;-61
2021/03/26 14:12:40;;;;;;;;;52.50;41.00;;;;;25.24;21.62;99231.31;5687000;27;5770431;-61
2021/03/26 14:16:05;;;;;;;;;52.00;41.00;;;;;25.25;21.52;99239.28;5677404;27;5799285;-61
2021/03/26 14:19:19;;;;;;;;;50.86;40.00;;;;;24.73;21.95;99228.78;5679244;27;6537648;-61
2021/03/26 14:22:25;;;;;;;;;51.33;41.00;;;;;24.53;22.55;99232.75;5660631;27;4356983;-62
2021/03/26 14:25:39;;;;;;;;;47.29;38.29;;;;;24.59;22.70;99224.06;5677349;27;6588707;-61
2021/03/26 14:28:54;;;;;;;;;51.00;40.75;;;;;24.47;22.31;99221.00;5654903;27;6524458;-61
2021/03/26 14:32:07;;;;;;;;;51.00;40.00;;;;;24.40;22.65;99217.81;5649860;27;4422096;-61
2021/03/26 14:35:22;;;;;;;;;48.86;39.14;;;;;24.35;22.26;99206.06;5665931;27;6583496;-61
2021/03/26 14:38:36;;;;;;;;;49.29;39.00;;;;;24.15;22.50;99204.47;5648693;27;6554334;-61
2021/03/26 14:41:53;;;;;;;;;49.14;40.00;;;;;24.35;23.00;99201.38;5667868;27;6566143;-62
2021/03/26 14:45:03;;;;;;;;;47.43;37.43;;;;;24.65;22.60;99205.47;5659289;27;6573082;-61
2021/03/26 14:48:21;;;;;;;;;49.00;37.75;;;;;24.47;22.18;99203.63;5664939;27;6566853;-61
2021/03/26 14:51:44;;;;;;;;;49.27;39.73;;;;;24.61;22.71;99207.22;5654924;27;7345912;-61
2021/03/26 14:55:00;;;;;;;;;48.71;39.00;;;;;24.68;22.45;99210.38;5669991;27;6578239;-61
2021/03/26 14:58:16;;;;;;;;;50.00;38.86;;;;;24.57;22.18;99203.44;5648787;27;6604383;-61
2021/03/26 15:01:28;;;;;;;;;49.00;39.00;;;;;24.54;22.39;99207.63;5655285;27;6548060;-61
2021/03/26 15:04:41;;;;;;;;;51.71;38.43;;;;;24.57;22.29;99204.25;5672594;27;5799216;-61
2021/03/26 15:07:52;;;;;;;;;48.00;38.00;;;;;24.50;22.50;99201.09;5630678;28;6575162;-61